Impacts TAF Board
For situational awareness. Not to be used for flight planning purposes.
IDs:

KDEN - Denver Intl, CO, US

Issued at 1744 UTC 17 Nov 2019
Updated at 2040 UTC 17 Nov 2019
Potential Impact None Slight Moderate High
Time1953Z 17/21Z 17/22Z 17/23Z 18/00Z 18/01Z 18/02Z 18/03Z 18/04Z 18/05Z 18/06Z 18/07Z 18/08Z 18/09Z>>
Type OBS PRVL PRVL PRVL PRVL PRVL PRVL PRVL PRVL PRVL PRVL PRVL PRVL PRVL
VIS 10 >6 >6 >6 >6 >6 >6 >6 >6 >6 >6 >6 >6 >6
CIG 220 -- 180 180 180 180 180 180 180 180 180 180 180 180
Cover BKN FEW BKN BKN BKN BKN BKN BKN BKN BKN BKN BKN BKN BKN
FltCat VFR VFR VFR VFR VFR VFR VFR VFR VFR VFR VFR VFR VFR VFR
WX -- -- -- -- -- -- -- -- -- -- -- -- -- --
WDir VRB 160 100 100 100 180 180 180 180 180 230 230 230 230
WSpd 0 10 7 7 7 8 8 8 8 8 8 8 8 8
WGst -- -- -- -- -- -- -- -- -- -- -- -- -- --
Raw TAF
KDEN 171744Z 1718/1824 16010KT P6SM FEW100
  FM172200 10007KT P6SM SCT100 BKN180
  FM180100 18008KT P6SM SCT100 BKN180
  FM180600 23008KT P6SM SCT100 BKN180
  FM181800 12007KT P6SM FEW100


Raw METAR
KDEN 171953Z 00000KT 10SM FEW100 BKN220 13/M07 A3003 RMK AO2 SLP148 T01331072
KDEN 171853Z 00000KT 10SM FEW100 SCT220 13/M07 A3006 RMK AO2 SLP158 T01281067
KDEN 171753Z 14008KT 10SM FEW100 FEW220 11/M04 A3011 RMK AO2 SLP176 T01111044 10111 21044 58012

METAR Board
Radar Display
Forecast Discussion
For situational awareness. Not to be used for flight planning purposes.